METAR Data
IDs: Format: Raw Decoded Include TAF

Data at: 0803 UTC 01 Aug 2021

LZZI 010800Z 27011KT 8000 -SHRA VCTS FEW005 FEW025CB BKN028 18/17 Q1010